sensor_id;sensor_type;location;lat;lon;timestamp;pressure;altitude;pressure_sealevel;temperature;humidity
46534;BME280;32260;52.008;4.752;2023-04-09T00:00:35;102693.47;;;9.71;64.71
46534;BME280;32260;52.008;4.752;2023-04-09T00:03:01;102691.66;;;9.70;64.19
46534;BME280;32260;52.008;4.752;2023-04-09T00:05:28;102695.22;;;9.69;64.64
46534;BME280;32260;52.008;4.752;2023-04-09T00:07:54;102689.84;;;9.66;64.60
46534;BME280;32260;52.008;4.752;2023-04-09T00:10:20;102693.38;;;9.65;64.60
46534;BME280;32260;52.008;4.752;2023-04-09T00:12:46;102689.84;;;9.63;64.23
46534;BME280;32260;52.008;4.752;2023-04-09T00:15:12;102688.06;;;9.62;64.38
46534;BME280;32260;52.008;4.752;2023-04-09T00:17:38;102689.78;;;9.60;64.39
46534;BME280;32260;52.008;4.752;2023-04-09T00:20:05;102688.00;;;9.59;64.81
46534;BME280;32260;52.008;4.752;2023-04-09T00:22:32;102684.47;;;9.57;64.61
46534;BME280;32260;52.008;4.752;2023-04-09T00:24:58;102683.47;;;9.52;64.54
46534;BME280;32260;52.008;4.752;2023-04-09T00:27:25;102680.75;;;9.46;64.69
46534;BME280;32260;52.008;4.752;2023-04-09T00:29:53;102678.06;;;9.43;64.74
46534;BME280;32260;52.008;4.752;2023-04-09T00:32:21;102677.97;;;9.36;65.54
46534;BME280;32260;52.008;4.752;2023-04-09T00:34:47;102675.34;;;9.38;65.53
46534;BME280;32260;52.008;4.752;2023-04-09T00:37:13;102677.03;;;9.31;65.41
46534;BME280;32260;52.008;4.752;2023-04-09T00:39:39;102673.47;;;9.29;65.55
46534;BME280;32260;52.008;4.752;2023-04-09T00:42:06;102669.91;;;9.27;65.41
46534;BME280;32260;52.008;4.752;2023-04-09T00:44:32;102669.00;;;9.27;66.03
46534;BME280;32260;52.008;4.752;2023-04-09T00:46:58;102663.72;;;9.27;66.25
46534;BME280;32260;52.008;4.752;2023-04-09T00:49:25;102670.78;;;9.26;66.18
46534;BME280;32260;52.008;4.752;2023-04-09T00:51:52;102661.06;;;9.25;66.43
46534;BME280;32260;52.008;4.752;2023-04-09T00:54:19;102666.34;;;9.25;66.37
46534;BME280;32260;52.008;4.752;2023-04-09T00:56:45;102671.66;;;9.25;66.48
46534;BME280;32260;52.008;4.752;2023-04-09T00:59:11;102667.22;;;9.24;66.97
46534;BME280;32260;52.008;4.752;2023-04-09T01:01:37;102662.84;;;9.26;66.39
46534;BME280;32260;52.008;4.752;2023-04-09T01:04:04;102661.94;;;9.26;66.86
46534;BME280;32260;52.008;4.752;2023-04-09T01:09:13;102662.88;;;9.29;67.33
46534;BME280;32260;52.008;4.752;2023-04-09T01:12:08;102655.03;;;9.35;66.94
46534;BME280;32260;52.008;4.752;2023-04-09T01:20:28;102656.16;;;9.53;67.08
46534;BME280;32260;52.008;4.752;2023-04-09T01:26:00;102655.53;;;9.73;66.66
46534;BME280;32260;52.008;4.752;2023-04-09T01:28:41;102655.78;;;9.94;66.15
46534;BME280;32260;52.008;4.752;2023-04-09T01:31:13;102655.84;;;10.00;66.54
46534;BME280;32260;52.008;4.752;2023-04-09T01:33:40;102658.56;;;10.07;66.65
46534;BME280;32260;52.008;4.752;2023-04-09T01:36:07;102664.00;;;10.16;67.12
46534;BME280;32260;52.008;4.752;2023-04-09T01:38:36;102659.69;;;10.26;66.61
46534;BME280;32260;52.008;4.752;2023-04-09T01:41:05;102663.31;;;10.35;66.59
46534;BME280;32260;52.008;4.752;2023-04-09T01:43:33;102658.13;;;10.45;66.57
46534;BME280;32260;52.008;4.752;2023-04-09T01:46:00;102660.84;;;10.54;66.20
46534;BME280;32260;52.008;4.752;2023-04-09T01:48:29;102660.97;;;10.63;66.54
46534;BME280;32260;52.008;4.752;2023-04-09T01:50:57;102651.28;;;10.70;66.21
46534;BME280;32260;52.008;4.752;2023-04-09T01:53:24;102647.81;;;10.77;66.30
46534;BME280;32260;52.008;4.752;2023-04-09T01:55:53;102656.69;;;10.84;66.81
46534;BME280;32260;52.008;4.752;2023-04-09T01:58:21;102650.56;;;10.90;66.44
46534;BME280;32260;52.008;4.752;2023-04-09T02:00:48;102653.25;;;10.96;66.40
46534;BME280;32260;52.008;4.752;2023-04-09T02:03:21;102659.50;;;11.03;66.34
46534;BME280;32260;52.008;4.752;2023-04-09T02:06:02;102658.69;;;11.13;66.46
46534;BME280;32260;52.008;4.752;2023-04-09T02:08:30;102652.50;;;11.14;65.96
46534;BME280;32260;52.008;4.752;2023-04-09T02:11:00;102652.53;;;11.20;66.04
46534;BME280;32260;52.008;4.752;2023-04-09T02:13:30;102657.88;;;11.26;66.74
46534;BME280;32260;52.008;4.752;2023-04-09T02:15:58;102657.00;;;11.29;66.06
46534;BME280;32260;52.008;4.752;2023-04-09T02:18:27;102657.03;;;11.35;65.68
46534;BME280;32260;52.008;4.752;2023-04-09T02:20:54;102656.22;;;11.38;65.83
46534;BME280;32260;52.008;4.752;2023-04-09T02:23:21;102656.22;;;11.44;66.58
46534;BME280;32260;52.008;4.752;2023-04-09T02:25:47;102645.63;;;11.47;66.34
46534;BME280;32260;52.008;4.752;2023-04-09T02:28:14;102658.03;;;11.51;66.90
46534;BME280;32260;52.008;4.752;2023-04-09T02:30:40;102650.97;;;11.53;66.35
46534;BME280;32260;52.008;4.752;2023-04-09T02:33:06;102646.56;;;11.55;67.28
46534;BME280;32260;52.008;4.752;2023-04-09T02:35:33;102643.91;;;11.57;67.30
46534;BME280;32260;52.008;4.752;2023-04-09T02:37:59;102645.69;;;11.59;66.98
46534;BME280;32260;52.008;4.752;2023-04-09T02:40:26;102640.38;;;11.62;67.28
46534;BME280;32260;52.008;4.752;2023-04-09T02:42:52;102631.56;;;11.67;66.48
46534;BME280;32260;52.008;4.752;2023-04-09T02:45:19;102629.81;;;11.72;66.85
46534;BME280;32260;52.008;4.752;2023-04-09T02:47:45;102628.94;;;11.77;67.03
46534;BME280;32260;52.008;4.752;2023-04-09T02:50:11;102628.06;;;11.80;67.29
46534;BME280;32260;52.008;4.752;2023-04-09T02:52:37;102629.84;;;11.84;66.71
46534;BME280;32260;52.008;4.752;2023-04-09T02:55:03;102627.19;;;11.87;66.11
46534;BME280;32260;52.008;4.752;2023-04-09T02:57:29;102622.78;;;11.89;66.49
46534;BME280;32260;52.008;4.752;2023-04-09T02:59:55;102616.59;;;11.92;66.34
46534;BME280;32260;52.008;4.752;2023-04-09T03:02:22;102619.25;;;11.95;66.12
46534;BME280;32260;52.008;4.752;2023-04-09T03:04:48;102614.00;;;11.96;66.21
46534;BME280;32260;52.008;4.752;2023-04-09T03:07:14;102614.88;;;11.98;65.89
46534;BME280;32260;52.008;4.752;2023-04-09T03:09:40;102614.00;;;11.96;66.08
46534;BME280;32260;52.008;4.752;2023-04-09T03:12:06;102611.28;;;11.93;66.49
46534;BME280;32260;52.008;4.752;2023-04-09T03:14:32;102613.94;;;11.93;66.51
46534;BME280;32260;52.008;4.752;2023-04-09T03:16:58;102613.94;;;11.95;66.12
46534;BME280;32260;52.008;4.752;2023-04-09T03:19:25;102607.78;;;11.96;66.39
46534;BME280;32260;52.008;4.752;2023-04-09T03:21:51;102607.81;;;11.97;66.34
46534;BME280;32260;52.008;4.752;2023-04-09T03:24:17;102607.81;;;11.99;66.50
46534;BME280;32260;52.008;4.752;2023-04-09T03:26:43;102605.13;;;12.02;66.45
46534;BME280;32260;52.008;4.752;2023-04-09T03:29:09;102604.25;;;12.05;66.07
46534;BME280;32260;52.008;4.752;2023-04-09T03:31:35;102601.63;;;12.08;65.85
46534;BME280;32260;52.008;4.752;2023-04-09T03:34:01;102596.31;;;12.08;65.88
46534;BME280;32260;52.008;4.752;2023-04-09T03:36:27;102591.88;;;12.07;66.16
46534;BME280;32260;52.008;4.752;2023-04-09T03:38:54;102592.75;;;12.07;66.20
46534;BME280;32260;52.008;4.752;2023-04-09T03:41:20;102594.53;;;12.07;66.25
46534;BME280;32260;52.008;4.752;2023-04-09T03:43:46;102590.09;;;12.06;66.09
46534;BME280;32260;52.008;4.752;2023-04-09T03:46:14;102583.00;;;12.02;66.67
46534;BME280;32260;52.008;4.752;2023-04-09T03:48:41;102583.00;;;12.00;66.44
46534;BME280;32260;52.008;4.752;2023-04-09T03:51:15;102591.88;;;12.04;66.06
46534;BME280;32260;52.008;4.752;2023-04-09T03:53:41;102588.31;;;12.02;66.13
46534;BME280;32260;52.008;4.752;2023-04-09T03:56:08;102574.16;;;12.03;66.20
46534;BME280;32260;52.008;4.752;2023-04-09T03:58:34;102570.59;;;12.02;65.99
46534;BME280;32260;52.008;4.752;2023-04-09T04:01:01;102573.28;;;12.04;66.59
46534;BME280;32260;52.008;4.752;2023-04-09T04:03:27;102575.03;;;12.02;65.77
46534;BME280;32260;52.008;4.752;2023-04-09T04:05:58;102577.69;;;12.03;66.21
46534;BME280;32260;52.008;4.752;2023-04-09T04:08:25;102581.25;;;12.05;66.26
46534;BME280;32260;52.008;4.752;2023-04-09T04:10:51;102571.50;;;12.06;66.10
46534;BME280;32260;52.008;4.752;2023-04-09T04:13:17;102570.59;;;12.08;65.80
46534;BME280;32260;52.008;4.752;2023-04-09T04:15:43;102576.81;;;12.06;66.54
46534;BME280;32260;52.008;4.752;2023-04-09T04:18:09;102575.94;;;12.07;65.91
46534;BME280;32260;52.008;4.752;2023-04-09T04:20:36;102580.34;;;12.05;65.78
46534;BME280;32260;52.008;4.752;2023-04-09T04:23:03;102575.03;;;12.05;65.56
46534;BME280;32260;52.008;4.752;2023-04-09T04:25:29;102575.03;;;12.05;65.57
46534;BME280;32260;52.008;4.752;2023-04-09T04:27:56;102570.63;;;12.05;65.81
46534;BME280;32260;52.008;4.752;2023-04-09T04:30:22;102568.84;;;12.07;65.54
46534;BME280;32260;52.008;4.752;2023-04-09T04:32:49;102568.84;;;12.07;66.02
46534;BME280;32260;52.008;4.752;2023-04-09T04:35:15;102572.38;;;12.09;65.56
46534;BME280;32260;52.008;4.752;2023-04-09T04:37:41;102569.72;;;12.11;66.03
46534;BME280;32260;52.008;4.752;2023-04-09T04:40:08;102568.84;;;12.13;65.55
46534;BME280;32260;52.008;4.752;2023-04-09T04:42:34;102568.84;;;12.13;65.69
46534;BME280;32260;52.008;4.752;2023-04-09T04:45:01;102576.81;;;12.13;66.02
46534;BME280;32260;52.008;4.752;2023-04-09T04:47:27;102576.81;;;12.13;65.47
46534;BME280;32260;52.008;4.752;2023-04-09T04:49:53;102580.38;;;12.12;65.41
46534;BME280;32260;52.008;4.752;2023-04-09T04:52:19;102584.78;;;12.10;65.43
46534;BME280;32260;52.008;4.752;2023-04-09T04:54:45;102579.47;;;12.12;65.68
46534;BME280;32260;52.008;4.752;2023-04-09T04:57:11;102580.38;;;12.14;65.48
46534;BME280;32260;52.008;4.752;2023-04-09T04:59:39;102582.16;;;12.15;65.23
46534;BME280;32260;52.008;4.752;2023-04-09T05:02:06;102587.47;;;12.18;64.99
46534;BME280;32260;52.008;4.752;2023-04-09T05:04:33;102587.47;;;12.15;65.91
46534;BME280;32260;52.008;4.752;2023-04-09T05:06:59;102595.41;;;12.12;65.35
46534;BME280;32260;52.008;4.752;2023-04-09T05:09:26;102594.53;;;12.07;64.80
46534;BME280;32260;52.008;4.752;2023-04-09T05:11:52;102594.53;;;12.10;65.29
46534;BME280;32260;52.008;4.752;2023-04-09T05:14:18;102594.53;;;12.13;65.26
46534;BME280;32260;52.008;4.752;2023-04-09T05:16:46;102588.34;;;12.17;64.69
46534;BME280;32260;52.008;4.752;2023-04-09T05:19:12;102591.88;;;12.21;64.62
46534;BME280;32260;52.008;4.752;2023-04-09T05:21:38;102591.00;;;12.23;65.04
46534;BME280;32260;52.008;4.752;2023-04-09T05:24:04;102595.47;;;12.27;64.58
46534;BME280;32260;52.008;4.752;2023-04-09T05:26:31;102588.34;;;12.31;64.91
46534;BME280;32260;52.008;4.752;2023-04-09T05:28:57;102592.81;;;12.34;64.46
46534;BME280;32260;52.008;4.752;2023-04-09T05:31:23;102590.13;;;12.35;64.46
46534;BME280;32260;52.008;4.752;2023-04-09T05:33:49;102591.91;;;12.36;64.65
46534;BME280;32260;52.008;4.752;2023-04-09T05:36:16;102591.91;;;12.39;64.42
46534;BME280;32260;52.008;4.752;2023-04-09T05:38:45;102591.91;;;12.39;64.57
46534;BME280;32260;52.008;4.752;2023-04-09T05:41:12;102593.69;;;12.42;64.89
46534;BME280;32260;52.008;4.752;2023-04-09T05:43:38;102591.91;;;12.41;65.09
46534;BME280;32260;52.008;4.752;2023-04-09T05:46:04;102591.00;;;12.42;65.11
46534;BME280;32260;52.008;4.752;2023-04-09T05:48:30;102594.56;;;12.45;64.74
46534;BME280;32260;52.008;4.752;2023-04-09T05:50:59;102606.09;;;12.44;65.10
46534;BME280;32260;52.008;4.752;2023-04-09T05:53:25;102601.66;;;12.45;64.89
46534;BME280;32260;52.008;4.752;2023-04-09T05:55:51;102592.78;;;12.46;65.18
46534;BME280;32260;52.008;4.752;2023-04-09T05:58:18;102595.44;;;12.46;65.21
46534;BME280;32260;52.008;4.752;2023-04-09T06:00:44;102596.34;;;12.46;65.06
46534;BME280;32260;52.008;4.752;2023-04-09T06:03:10;102599.91;;;12.49;64.56
46534;BME280;32260;52.008;4.752;2023-04-09T06:05:36;102609.63;;;12.48;64.88
46534;BME280;32260;52.008;4.752;2023-04-09T06:08:03;102607.88;;;12.50;65.17
46534;BME280;32260;52.008;4.752;2023-04-09T06:10:31;102609.66;;;12.51;65.29
46534;BME280;32260;52.008;4.752;2023-04-09T06:12:58;102608.75;;;12.49;64.76
46534;BME280;32260;52.008;4.752;2023-04-09T06:15:24;102599.00;;;12.50;64.57
46534;BME280;32260;52.008;4.752;2023-04-09T06:17:50;102602.53;;;12.52;64.89
46534;BME280;32260;52.008;4.752;2023-04-09T06:20:16;102601.66;;;12.54;64.83
46534;BME280;32260;52.008;4.752;2023-04-09T06:22:42;102603.44;;;12.55;64.73
46534;BME280;32260;52.008;4.752;2023-04-09T06:25:08;102599.88;;;12.58;64.97
46534;BME280;32260;52.008;4.752;2023-04-09T06:27:34;102598.09;;;12.58;64.78
46534;BME280;32260;52.008;4.752;2023-04-09T06:30:00;102609.63;;;12.54;65.37
46534;BME280;32260;52.008;4.752;2023-04-09T06:32:27;102610.50;;;12.59;64.67
46534;BME280;32260;52.008;4.752;2023-04-09T06:34:53;102612.28;;;12.54;64.80
46534;BME280;32260;52.008;4.752;2023-04-09T06:37:19;102608.75;;;12.55;64.73
46534;BME280;32260;52.008;4.752;2023-04-09T06:39:45;102612.31;;;12.57;64.80
46534;BME280;32260;52.008;4.752;2023-04-09T06:42:11;102614.06;;;12.58;64.60
46534;BME280;32260;52.008;4.752;2023-04-09T06:44:37;102618.47;;;12.61;64.86
46534;BME280;32260;52.008;4.752;2023-04-09T06:47:03;102614.97;;;12.64;64.32
46534;BME280;32260;52.008;4.752;2023-04-09T06:49:30;102622.03;;;12.65;64.37
46534;BME280;32260;52.008;4.752;2023-04-09T06:51:56;102622.94;;;12.67;64.37
46534;BME280;32260;52.008;4.752;2023-04-09T06:54:22;102618.50;;;12.69;64.24
46534;BME280;32260;52.008;4.752;2023-04-09T06:56:48;102622.94;;;12.70;64.54
46534;BME280;32260;52.008;4.752;2023-04-09T06:59:14;102621.16;;;12.69;64.04
46534;BME280;32260;52.008;4.752;2023-04-09T07:01:41;102619.38;;;12.69;64.06
46534;BME280;32260;52.008;4.752;2023-04-09T07:04:08;102622.94;;;12.70;64.17
46534;BME280;32260;52.008;4.752;2023-04-09T07:06:34;102622.94;;;12.73;64.00
46534;BME280;32260;52.008;4.752;2023-04-09T07:09:00;102618.50;;;12.75;64.12
46534;BME280;32260;52.008;4.752;2023-04-09T07:11:26;102615.84;;;12.75;64.11
46534;BME280;32260;52.008;4.752;2023-04-09T07:13:52;102614.06;;;12.77;63.69
46534;BME280;32260;52.008;4.752;2023-04-09T07:16:18;102622.91;;;12.76;64.01
46534;BME280;32260;52.008;4.752;2023-04-09T07:18:45;102622.94;;;12.73;63.61
46534;BME280;32260;52.008;4.752;2023-04-09T07:21:11;102618.50;;;12.70;63.10
46534;BME280;32260;52.008;4.752;2023-04-09T07:23:37;102619.38;;;12.71;63.05
46534;BME280;32260;52.008;4.752;2023-04-09T07:26:04;102615.84;;;12.72;63.08
46534;BME280;32260;52.008;4.752;2023-04-09T07:28:31;102621.16;;;12.75;63.44
46534;BME280;32260;52.008;4.752;2023-04-09T07:30:59;102619.38;;;12.77;63.52
46534;BME280;32260;52.008;4.752;2023-04-09T07:33:27;102617.63;;;12.77;62.97
46534;BME280;32260;52.008;4.752;2023-04-09T07:35:54;102614.06;;;12.82;63.09
46534;BME280;32260;52.008;4.752;2023-04-09T07:38:20;102619.38;;;12.83;63.52
46534;BME280;32260;52.008;4.752;2023-04-09T07:40:47;102614.94;;;12.85;63.64
46534;BME280;32260;52.008;4.752;2023-04-09T07:43:13;102615.81;;;12.89;63.64
46534;BME280;32260;52.008;4.752;2023-04-09T07:45:39;102617.59;;;12.88;63.31
46534;BME280;32260;52.008;4.752;2023-04-09T07:48:05;102611.38;;;12.94;63.20
46534;BME280;32260;52.008;4.752;2023-04-09T07:50:34;102614.03;;;12.99;63.02
46534;BME280;32260;52.008;4.752;2023-04-09T07:53:00;102618.47;;;13.00;63.39
46534;BME280;32260;52.008;4.752;2023-04-09T07:55:26;102618.47;;;13.00;63.29
46534;BME280;32260;52.008;4.752;2023-04-09T07:57:53;102628.22;;;13.01;62.87
46534;BME280;32260;52.008;4.752;2023-04-09T08:00:19;102622.91;;;13.04;62.63
46534;BME280;32260;52.008;4.752;2023-04-09T08:02:45;102625.53;;;13.07;62.96
46534;BME280;32260;52.008;4.752;2023-04-09T08:05:11;102627.31;;;13.06;62.41
46534;BME280;32260;52.008;4.752;2023-04-09T08:07:38;102623.75;;;13.06;62.32
46534;BME280;32260;52.008;4.752;2023-04-09T08:10:05;102627.31;;;13.11;61.94
46534;BME280;32260;52.008;4.752;2023-04-09T08:12:31;102622.88;;;13.15;62.37
46534;BME280;32260;52.008;4.752;2023-04-09T08:14:57;102618.44;;;13.14;62.06
46534;BME280;32260;52.008;4.752;2023-04-09T08:17:23;102614.00;;;13.14;62.16
46534;BME280;32260;52.008;4.752;2023-04-09T08:19:50;102619.34;;;13.08;61.39
46534;BME280;32260;52.008;4.752;2023-04-09T08:22:16;102621.09;;;13.09;61.53
46534;BME280;32260;52.008;4.752;2023-04-09T08:24:42;102612.22;;;13.13;61.49
46534;BME280;32260;52.008;4.752;2023-04-09T08:27:08;102616.66;;;13.13;61.34
46534;BME280;32260;52.008;4.752;2023-04-09T08:29:35;102622.88;;;13.16;61.77
46534;BME280;32260;52.008;4.752;2023-04-09T08:32:01;102629.97;;;13.16;61.79
46534;BME280;32260;52.008;4.752;2023-04-09T08:34:27;102625.56;;;13.08;61.45
46534;BME280;32260;52.008;4.752;2023-04-09T08:36:54;102632.63;;;13.13;62.15
46534;BME280;32260;52.008;4.752;2023-04-09T08:39:20;102622.88;;;13.21;61.56
46534;BME280;32260;52.008;4.752;2023-04-09T08:41:46;102623.72;;;13.23;60.79
46534;BME280;32260;52.008;4.752;2023-04-09T08:44:13;102625.50;;;13.24;60.79
46534;BME280;32260;52.008;4.752;2023-04-09T08:46:39;102629.03;;;13.31;60.41
46534;BME280;32260;52.008;4.752;2023-04-09T08:49:07;102636.13;;;13.33;60.21
46534;BME280;32260;52.008;4.752;2023-04-09T08:51:33;102632.59;;;13.40;59.67
46534;BME280;32260;52.008;4.752;2023-04-09T08:54:00;102639.66;;;13.49;60.01
46534;BME280;32260;52.008;4.752;2023-04-09T08:56:27;102638.78;;;13.55;59.23
46534;BME280;32260;52.008;4.752;2023-04-09T08:58:54;102626.31;;;13.62;59.64
46534;BME280;32260;52.008;4.752;2023-04-09T09:01:29;102620.03;;;13.72;58.74
46534;BME280;32260;52.008;4.752;2023-04-09T09:04:00;102626.25;;;13.77;59.29
46534;BME280;32260;52.008;4.752;2023-04-09T09:06:28;102623.56;;;13.80;57.85
46534;BME280;32260;52.008;4.752;2023-04-09T09:09:09;102626.22;;;13.83;56.58
46534;BME280;32260;52.008;4.752;2023-04-09T09:11:40;102617.31;;;13.87;57.91
46534;BME280;32260;52.008;4.752;2023-04-09T09:14:08;102616.44;;;13.84;56.60
46534;BME280;32260;52.008;4.752;2023-04-09T09:16:36;102620.91;;;13.83;57.67
46534;BME280;32260;52.008;4.752;2023-04-09T09:19:07;102633.25;;;13.90;57.97
46534;BME280;32260;52.008;4.752;2023-04-09T09:21:34;102629.72;;;13.91;57.92
46534;BME280;32260;52.008;4.752;2023-04-09T09:24:02;102623.47;;;13.97;58.13
46534;BME280;32260;52.008;4.752;2023-04-09T09:26:41;102632.38;;;13.91;57.85
46534;BME280;32260;52.008;4.752;2023-04-09T09:29:08;102624.34;;;14.01;58.10
46534;BME280;32260;52.008;4.752;2023-04-09T09:31:46;102625.19;;;14.07;57.84
46534;BME280;32260;52.008;4.752;2023-04-09T09:34:15;102616.25;;;14.12;58.52
46534;BME280;32260;52.008;4.752;2023-04-09T09:36:43;102617.13;;;14.15;58.14
46534;BME280;32260;52.008;4.752;2023-04-09T09:39:10;102616.25;;;14.19;57.90
46534;BME280;32260;52.008;4.752;2023-04-09T09:41:38;102609.06;;;14.28;57.99
46534;BME280;32260;52.008;4.752;2023-04-09T09:44:06;102613.44;;;14.35;57.68
46534;BME280;32260;52.008;4.752;2023-04-09T09:46:35;102596.50;;;14.47;57.73
46534;BME280;32260;52.008;4.752;2023-04-09T09:49:03;102594.59;;;14.56;56.85
46534;BME280;32260;52.008;4.752;2023-04-09T09:51:31;102593.66;;;14.67;56.50
46534;BME280;32260;52.008;4.752;2023-04-09T09:53:58;102589.97;;;14.80;55.96
46534;BME280;32260;52.008;4.752;2023-04-09T09:56:30;102578.25;;;14.97;55.90
46534;BME280;32260;52.008;4.752;2023-04-09T10:01:39;102583.09;;;15.42;54.67
46534;BME280;32260;52.008;4.752;2023-04-09T10:04:06;102583.78;;;15.58;54.04
46534;BME280;32260;52.008;4.752;2023-04-09T10:06:39;102571.09;;;15.72;53.46
46534;BME280;32260;52.008;4.752;2023-04-09T10:09:08;102568.25;;;15.86;53.77
46534;BME280;32260;52.008;4.752;2023-04-09T10:11:36;102559.22;;;15.95;53.28
46534;BME280;32260;52.008;4.752;2023-04-09T10:14:03;102562.72;;;16.00;52.61
46534;BME280;32260;52.008;4.752;2023-04-09T10:16:30;102552.75;;;16.11;51.88
46534;BME280;32260;52.008;4.752;2023-04-09T10:18:58;102544.53;;;16.24;52.19
46534;BME280;32260;52.008;4.752;2023-04-09T10:22:16;102546.84;;;16.44;51.99
46534;BME280;32260;52.008;4.752;2023-04-09T10:24:32;102542.16;;;16.57;50.75
46534;BME280;32260;52.008;4.752;2023-04-09T10:27:10;102537.25;;;16.80;51.83
46534;BME280;32260;52.008;4.752;2023-04-09T10:29:42;102536.94;;;16.99;51.63
46534;BME280;32260;52.008;4.752;2023-04-09T10:32:10;102532.19;;;17.13;50.93
46534;BME280;32260;52.008;4.752;2023-04-09T10:34:41;102539.16;;;17.22;50.44
46534;BME280;32260;52.008;4.752;2023-04-09T10:37:13;102533.69;;;17.27;50.89
46534;BME280;32260;52.008;4.752;2023-04-09T10:39:43;102536.34;;;17.27;48.80
46534;BME280;32260;52.008;4.752;2023-04-09T10:42:31;102529.91;;;17.36;49.25
46534;BME280;32260;52.008;4.752;2023-04-09T10:45:13;102519.22;;;17.36;50.11
46534;BME280;32260;52.008;4.752;2023-04-09T10:47:40;102519.13;;;17.40;49.07
46534;BME280;32260;52.008;4.752;2023-04-09T10:50:17;102516.16;;;17.53;49.89
46534;BME280;32260;52.008;4.752;2023-04-09T10:52:43;102518.72;;;17.59;47.95
46534;BME280;32260;52.008;4.752;2023-04-09T10:55:37;102510.53;;;17.65;48.68
46534;BME280;32260;52.008;4.752;2023-04-09T10:58:05;102515.97;;;17.62;48.15
46534;BME280;32260;52.008;4.752;2023-04-09T11:00:36;102512.91;;;17.77;48.89
46534;BME280;32260;52.008;4.752;2023-04-09T11:05:42;102500.47;;;17.75;48.99
46534;BME280;32260;52.008;4.752;2023-04-09T11:08:10;102494.06;;;17.81;49.03
46534;BME280;32260;52.008;4.752;2023-04-09T11:10:40;102486.63;;;17.93;49.07
46534;BME280;32260;52.008;4.752;2023-04-09T11:13:10;102494.34;;;18.07;48.76
46534;BME280;32260;52.008;4.752;2023-04-09T11:15:38;102489.59;;;18.19;47.79
46534;BME280;32260;52.008;4.752;2023-04-09T11:18:04;102483.16;;;18.26;47.32
46534;BME280;32260;52.008;4.752;2023-04-09T11:20:39;102482.72;;;18.41;48.27
46534;BME280;32260;52.008;4.752;2023-04-09T11:23:05;102474.19;;;18.60;47.47
46534;BME280;32260;52.008;4.752;2023-04-09T11:25:33;102470.50;;;18.64;46.98
46534;BME280;32260;52.008;4.752;2023-04-09T11:28:02;102474.00;;;18.66;46.35
46534;BME280;32260;52.008;4.752;2023-04-09T11:30:29;102461.69;;;18.59;46.77
46534;BME280;32260;52.008;4.752;2023-04-09T11:32:56;102463.38;;;18.63;47.54
46534;BME280;32260;52.008;4.752;2023-04-09T11:35:22;102463.44;;;18.60;46.34
46534;BME280;32260;52.008;4.752;2023-04-09T11:37:49;102470.31;;;18.70;46.19
46534;BME280;32260;52.008;4.752;2023-04-09T11:40:19;102468.22;;;18.82;45.79
46534;BME280;32260;52.008;4.752;2023-04-09T11:42:48;102464.31;;;18.94;44.96
46534;BME280;32260;52.008;4.752;2023-04-09T11:45:15;102458.53;;;19.07;45.90
46534;BME280;32260;52.008;4.752;2023-04-09T11:47:43;102453.16;;;19.07;44.07
46534;BME280;32260;52.008;4.752;2023-04-09T11:50:12;102450.34;;;19.12;44.99
46534;BME280;32260;52.008;4.752;2023-04-09T11:52:38;102460.91;;;19.18;44.37
46534;BME280;32260;52.008;4.752;2023-04-09T11:55:07;102460.06;;;19.16;45.36
46534;BME280;32260;52.008;4.752;2023-04-09T11:57:42;102461.69;;;19.22;44.84
46534;BME280;32260;52.008;4.752;2023-04-09T12:00:12;102451.63;;;19.29;44.21
46534;BME280;32260;52.008;4.752;2023-04-09T12:02:45;102464.13;;;19.30;43.09
46534;BME280;32260;52.008;4.752;2023-04-09T12:05:20;102460.84;;;19.20;43.94
46534;BME280;32260;52.008;4.752;2023-04-09T12:07:47;102450.94;;;19.22;44.12
46534;BME280;32260;52.008;4.752;2023-04-09T12:10:13;102450.94;;;19.22;44.17
46534;BME280;32260;52.008;4.752;2023-04-09T12:12:42;102447.34;;;19.23;44.44
46534;BME280;32260;52.008;4.752;2023-04-09T12:17:48;102455.84;;;19.07;44.28
46534;BME280;32260;52.008;4.752;2023-04-09T12:20:26;102451.13;;;19.16;43.68
46534;BME280;32260;52.008;4.752;2023-04-09T12:22:53;102448.97;;;19.27;45.12
46534;BME280;32260;52.008;4.752;2023-04-09T12:25:19;102457.50;;;19.42;42.68
46534;BME280;32260;52.008;4.752;2023-04-09T12:27:45;102446.56;;;19.48;44.10
46534;BME280;32260;52.008;4.752;2023-04-09T12:30:12;102453.78;;;19.46;44.59
46534;BME280;32260;52.008;4.752;2023-04-09T12:32:38;102436.53;;;19.53;44.68
46534;BME280;32260;52.008;4.752;2023-04-09T12:35:05;102442.09;;;19.75;43.21
46534;BME280;32260;52.008;4.752;2023-04-09T12:37:31;102436.06;;;19.67;41.74
46534;BME280;32260;52.008;4.752;2023-04-09T12:39:57;102444.28;;;19.62;42.76
46534;BME280;32260;52.008;4.752;2023-04-09T12:42:23;102446.56;;;19.75;43.53
46534;BME280;32260;52.008;4.752;2023-04-09T12:44:49;102447.13;;;19.86;42.76
46534;BME280;32260;52.008;4.752;2023-04-09T12:47:15;102448.25;;;20.06;42.29
46534;BME280;32260;52.008;4.752;2023-04-09T12:49:44;102444.03;;;20.24;42.25
46534;BME280;32260;52.008;4.752;2023-04-09T12:52:11;102449.75;;;20.40;40.72
46534;BME280;32260;52.008;4.752;2023-04-09T12:54:37;102435.97;;;20.49;40.98
46534;BME280;32260;52.008;4.752;2023-04-09T12:57:05;102443.56;;;20.38;40.25
46534;BME280;32260;52.008;4.752;2023-04-09T12:59:31;102431.16;;;20.59;40.69
46534;BME280;32260;52.008;4.752;2023-04-09T13:01:58;102433.13;;;20.79;40.99
46534;BME280;32260;52.008;4.752;2023-04-09T13:04:24;102442.00;;;20.81;40.64
46534;BME280;32260;52.008;4.752;2023-04-09T13:06:50;102438.66;;;20.74;40.28
46534;BME280;32260;52.008;4.752;2023-04-09T13:09:16;102446.41;;;20.58;40.26
46534;BME280;32260;52.008;4.752;2023-04-09T13:11:42;102446.41;;;20.58;41.08